createdAt,value
2019-04-01T00:00:01.132Z,980.07
2019-04-01T00:05:01.064Z,980.14
2019-04-01T00:10:01.363Z,980.10
2019-04-01T00:15:01.053Z,980.10
2019-04-01T00:20:01.428Z,980.04
2019-04-01T00:25:01.028Z,980.06
2019-04-01T00:30:01.053Z,980.03
2019-04-01T00:35:01.114Z,980.03
2019-04-01T00:40:01.370Z,980.05
2019-04-01T00:45:01.104Z,979.97
2019-04-01T00:50:01.051Z,980.03
2019-04-01T00:55:01.443Z,980.01
2019-04-01T01:00:01.064Z,980.00
2019-04-01T01:05:01.101Z,980.00
2019-04-01T01:10:01.426Z,980.10
2019-04-01T01:15:01.063Z,980.05
2019-04-01T01:20:01.493Z,979.99
2019-04-01T01:25:01.031Z,980.06
2019-04-01T01:30:01.074Z,980.03
2019-04-01T01:35:01.373Z,980.07
2019-04-01T01:40:01.040Z,980.17
2019-04-01T01:45:01.032Z,980.19
2019-04-01T01:50:01.069Z,980.13
2019-04-01T01:55:01.082Z,980.16
2019-04-01T02:00:01.480Z,980.11
2019-04-01T02:05:01.037Z,980.09
2019-04-01T02:10:01.076Z,980.13
2019-04-01T02:15:01.045Z,980.09
2019-04-01T02:20:01.051Z,980.19
2019-04-01T02:25:01.366Z,980.18
2019-04-01T02:30:01.060Z,980.12
2019-04-01T02:35:01.079Z,980.20
2019-04-01T03:20:01.081Z,980.40
2019-04-01T03:25:01.399Z,980.46
2019-04-01T03:30:01.121Z,980.38
2019-04-01T03:35:01.707Z,980.44
2019-04-01T03:40:01.144Z,980.42
2019-04-01T03:45:01.081Z,980.45
2019-04-01T03:50:01.100Z,980.46
2019-04-01T03:55:01.397Z,980.58
2019-04-01T04:00:01.047Z,980.48
2019-04-01T04:05:01.067Z,980.51
2019-04-01T04:10:01.085Z,980.51
2019-04-01T04:15:01.074Z,980.52
2019-04-01T04:20:01.114Z,980.68
2019-04-01T04:25:01.397Z,980.63
2019-04-01T04:30:01.046Z,980.60
2019-04-01T04:35:01.266Z,980.59
2019-04-01T04:40:01.110Z,980.67
2019-04-01T04:45:01.466Z,980.65
2019-04-01T04:50:01.125Z,980.75
2019-04-01T04:55:01.763Z,980.78
2019-04-01T05:00:01.044Z,980.86
2019-04-01T05:05:01.467Z,980.79
2019-04-01T05:10:01.045Z,980.88
2019-04-01T05:15:01.063Z,980.97
2019-04-01T05:20:01.123Z,981.03
2019-04-01T05:25:01.164Z,981.08
2019-04-01T05:30:01.407Z,981.14
2019-04-01T05:35:01.067Z,981.01
2019-04-01T05:40:01.404Z,981.21
2019-04-01T05:45:01.120Z,981.18
2019-04-01T05:50:01.355Z,981.23
2019-04-01T05:55:01.046Z,981.28
2019-04-01T06:00:01.050Z,981.29
2019-04-01T06:05:01.060Z,981.22
2019-04-01T06:10:01.071Z,981.30
2019-04-01T06:15:01.111Z,981.29
2019-04-01T06:20:01.142Z,981.23
2019-04-01T06:25:01.389Z,981.28
2019-04-01T06:30:01.063Z,981.28
2019-04-01T06:35:01.055Z,981.30
2019-04-01T06:40:01.384Z,981.34
2019-04-01T06:45:01.079Z,981.21
2019-04-01T06:50:01.108Z,981.32
2019-04-01T06:55:01.064Z,981.33
2019-04-01T07:00:01.170Z,981.31
2019-04-01T07:05:01.056Z,981.35
2019-04-01T07:10:01.364Z,981.33
2019-04-01T07:15:01.051Z,981.31
2019-04-01T07:20:01.125Z,981.30
2019-04-01T07:25:01.379Z,981.36
2019-04-01T07:30:01.072Z,981.35
2019-04-01T07:35:01.199Z,981.26
2019-04-01T07:40:01.373Z,981.26
2019-04-01T07:45:01.156Z,981.30
2019-04-01T07:50:01.456Z,981.33
2019-04-01T07:55:01.523Z,981.28
2019-04-01T08:00:01.137Z,981.38
2019-04-01T08:05:01.090Z,981.28
2019-04-01T08:10:01.062Z,981.31
2019-04-01T08:15:01.146Z,981.26
2019-04-01T08:20:01.052Z,981.22
2019-04-01T08:25:01.070Z,981.35
2019-04-01T08:30:01.111Z,981.45
2019-04-01T08:35:01.414Z,981.40
2019-04-01T08:40:01.204Z,981.35
2019-04-01T08:45:01.391Z,981.31
2019-04-01T08:50:01.123Z,981.27
2019-04-01T08:55:01.504Z,981.27
2019-04-01T09:00:01.060Z,981.26
2019-04-01T09:05:01.093Z,981.31
2019-04-01T09:10:01.065Z,981.20
2019-04-01T09:15:01.381Z,981.21
2019-04-01T09:20:01.068Z,981.20
2019-04-01T09:25:01.435Z,981.18
2019-04-01T09:30:01.056Z,981.18
2019-04-01T09:35:01.096Z,981.06
2019-04-01T09:40:01.077Z,981.02
2019-04-01T09:45:01.066Z,981.12
2019-04-01T09:50:01.390Z,981.04
2019-04-01T09:55:01.377Z,981.04
2019-04-01T10:00:01.408Z,981.06
2019-04-01T10:05:01.060Z,980.98
2019-04-01T10:10:01.388Z,980.86
2019-04-01T10:15:01.430Z,980.96
2019-04-01T10:20:01.643Z,980.93
2019-04-01T10:25:01.195Z,980.91
2019-04-01T10:30:01.171Z,980.88
2019-04-01T10:35:01.168Z,980.83
2019-04-01T10:40:01.110Z,980.73
2019-04-01T10:45:01.095Z,980.70
2019-04-01T10:50:01.103Z,980.71
2019-04-01T10:55:01.120Z,980.81
2019-04-01T11:00:01.411Z,980.64
2019-04-01T11:05:01.150Z,980.57
2019-04-01T11:10:01.111Z,980.59
2019-04-01T11:15:01.470Z,980.52
2019-04-01T11:20:01.659Z,980.46
2019-04-01T11:25:01.180Z,980.44
2019-04-01T11:30:01.102Z,980.53
2019-04-01T11:35:01.119Z,980.34
2019-04-01T11:40:01.499Z,980.28
2019-04-01T11:45:01.375Z,980.27
2019-04-01T11:50:01.360Z,980.18
2019-04-01T11:55:01.454Z,980.17
2019-04-01T12:00:02.280Z,979.96
2019-04-01T12:05:01.595Z,979.95
2019-04-01T12:10:01.070Z,979.88
2019-04-01T12:15:01.109Z,979.83
2019-04-01T12:20:01.474Z,979.85
2019-04-01T12:25:01.076Z,979.75
2019-04-01T12:30:01.607Z,979.61
2019-04-01T12:35:01.052Z,979.60
2019-04-01T12:40:01.067Z,979.46
2019-04-01T12:45:01.061Z,979.44
2019-04-01T12:50:01.436Z,979.40
2019-04-01T12:55:01.214Z,979.38
2019-04-01T13:00:01.550Z,979.37
2019-04-01T13:05:01.070Z,979.38
2019-04-01T13:10:01.105Z,979.21
2019-04-01T13:15:01.116Z,979.21
2019-04-01T13:20:01.054Z,979.23
2019-04-01T13:25:03.618Z,979.09
2019-04-01T13:30:01.487Z,979.07
2019-04-01T13:35:01.073Z,979.02
2019-04-01T13:40:02.903Z,979.00
2019-04-01T13:45:02.002Z,978.94
2019-04-01T13:50:01.159Z,978.90
2019-04-01T13:55:01.162Z,978.93
2019-04-01T14:00:01.094Z,978.87
2019-04-01T14:05:01.396Z,978.86
2019-04-01T14:10:01.131Z,978.86
2019-04-01T14:15:01.547Z,978.79
2019-04-01T14:20:01.072Z,978.74
2019-04-01T14:25:01.104Z,978.71
2019-04-01T14:30:01.450Z,978.70
2019-04-01T14:35:01.054Z,978.64
2019-04-01T14:40:01.076Z,978.60
2019-04-01T14:45:01.615Z,978.66
2019-04-01T14:50:02.833Z,978.72
2019-04-01T14:55:01.457Z,978.63
2019-04-01T15:00:01.421Z,978.59
2019-04-01T15:05:04.577Z,978.64
2019-04-01T15:10:01.272Z,978.59
2019-04-01T15:15:01.084Z,978.58
2019-04-01T15:20:01.063Z,978.53
2019-04-01T15:25:01.364Z,978.49
2019-04-01T15:30:01.056Z,978.59
2019-04-01T15:35:01.071Z,978.59
2019-04-01T15:40:01.066Z,978.59
2019-04-01T15:45:01.067Z,978.52
2019-04-01T15:50:28.330Z,978.53
2019-04-01T15:55:02.466Z,978.64
2019-04-01T16:00:01.126Z,978.54
2019-04-01T16:05:01.071Z,978.58
2019-04-01T16:10:01.108Z,978.58
2019-04-01T16:15:01.113Z,978.59
2019-04-01T16:20:01.505Z,978.63
2019-04-01T16:25:01.056Z,978.51
2019-04-01T16:30:01.125Z,978.59
2019-04-01T16:35:01.404Z,978.56
2019-04-01T16:40:01.084Z,978.57
2019-04-01T16:45:01.438Z,978.61
2019-04-01T16:50:01.508Z,978.56
2019-04-01T16:55:02.632Z,978.58
2019-04-01T17:00:01.058Z,978.59
2019-04-01T17:05:01.713Z,978.72
2019-04-01T17:10:01.217Z,978.69
2019-04-01T17:15:03.527Z,978.76
2019-04-01T17:20:01.220Z,978.72
2019-04-01T17:25:01.547Z,978.84
2019-04-01T17:30:01.426Z,978.79
2019-04-01T17:35:01.627Z,978.78
2019-04-01T17:40:01.178Z,978.88
2019-04-01T17:45:01.107Z,979.00
2019-04-01T17:50:01.206Z,978.96
2019-04-01T17:55:02.542Z,979.11
2019-04-01T18:00:01.754Z,979.17
2019-04-01T18:05:01.098Z,979.23
2019-04-01T18:10:01.171Z,979.28
2019-04-01T18:15:01.113Z,979.29
2019-04-01T18:20:02.287Z,979.25
2019-04-01T18:25:01.542Z,979.40
2019-04-01T18:30:01.189Z,979.41
2019-04-01T18:35:03.997Z,979.48
2019-04-01T18:40:01.140Z,979.54
2019-04-01T18:45:01.110Z,979.54
2019-04-01T18:50:02.339Z,979.62
2019-04-01T18:55:02.148Z,979.65
2019-04-01T19:00:01.267Z,979.74
2019-04-01T19:05:01.939Z,979.76
2019-04-01T19:10:06.389Z,979.76
2019-04-01T19:15:02.581Z,979.80
2019-04-01T19:20:01.119Z,979.90
2019-04-01T19:25:01.990Z,979.90
2019-04-01T19:30:01.197Z,980.00
2019-04-01T19:35:01.240Z,980.00
2019-04-01T19:40:01.099Z,980.09
2019-04-01T19:45:01.239Z,980.15
2019-04-01T19:50:01.999Z,980.06
2019-04-01T19:55:01.195Z,980.15
2019-04-01T20:00:01.062Z,980.06
2019-04-01T20:05:02.420Z,980.20
2019-04-01T20:10:01.070Z,980.18
2019-04-01T20:15:01.119Z,980.25
2019-04-01T20:20:02.303Z,980.26
2019-04-01T20:25:01.545Z,980.16
2019-04-01T20:30:01.615Z,980.17
2019-04-01T20:35:01.094Z,980.21
2019-04-01T20:40:01.097Z,980.19
2019-04-01T20:45:01.452Z,980.25
2019-04-01T20:50:01.502Z,980.16
2019-04-01T20:55:01.104Z,980.34
2019-04-01T21:00:01.070Z,980.39
2019-04-01T21:05:01.169Z,980.32
2019-04-01T21:10:01.106Z,980.27
2019-04-01T21:15:01.466Z,980.26
2019-04-01T21:20:01.446Z,980.32
2019-04-01T21:25:02.250Z,980.33
2019-04-01T21:30:01.119Z,980.30
2019-04-01T21:35:01.093Z,980.33
2019-04-01T21:40:01.364Z,980.36
2019-04-01T21:45:01.368Z,980.39
2019-04-01T21:50:01.076Z,980.37
2019-04-01T21:55:01.084Z,980.38
2019-04-01T22:00:01.110Z,980.33
2019-04-01T22:05:01.326Z,980.34
2019-04-01T22:10:01.139Z,980.36
2019-04-01T22:15:01.170Z,980.33
2019-04-01T22:20:01.087Z,980.35
2019-04-01T22:25:01.726Z,980.36
2019-04-01T22:30:01.653Z,980.36
2019-04-01T22:35:01.087Z,980.31
2019-04-01T22:40:01.234Z,980.30
2019-04-01T22:45:01.541Z,980.27
2019-04-01T22:50:01.072Z,980.31
2019-04-01T22:55:01.049Z,980.27
2019-04-01T23:00:01.099Z,980.29
2019-04-01T23:05:01.400Z,980.25
2019-04-01T23:10:01.133Z,980.25
2019-04-01T23:15:01.506Z,980.29
2019-04-01T23:20:01.143Z,980.22
2019-04-01T23:25:01.363Z,980.23
2019-04-01T23:30:01.081Z,980.37
2019-04-01T23:35:01.427Z,980.27
2019-04-01T23:40:01.112Z,980.23
2019-04-01T23:45:01.057Z,980.20
2019-04-01T23:50:01.525Z,980.09
2019-04-01T23:55:01.100Z,980.22
